Main page
METAR-TAF:

METAR-TAF

Airports :

Blosser Municipal Airport

Concordia, Kansas, United States

latitude: 39-33-05N, longitude: 097-39-02W, elevation: 1486 ft

Current weather observation

The report was made 26 minutes ago, at 13:55 UTC
Wind 15 mph from the South/Southwest
Temperature 34°F
Humidity 69%
Pressure 30.12 in. Hg
Visibility: 10 miles
Clear sky

METAR: KCNK 221355Z AUTO 20013KT 10SM CLR 01/M04 A3012 RMK AO2 SLP207 T00061039

Time: 08:21 (14:21 UTC)


TAF: missing

Weather observations and forecasts of more than 4000 airports (METAR and TAF reports).

The available stations are represented by yellow and red dots on the map.

Hover mouse over dot to see the name of the station.

Then click to see weather observations and forecasts.

To change the map : click on the green buttons with a black cross to zoom in, on the green button with a dash to zoom out, or on the green arrows for adjacent maps.


METAR-TAF: